Taiban, NM

1:00 AM MDT on July 29, 2016 (GMT -0600)
Melrose Gunnery Range | | Change Station

Elev 4350 ft 34.30 °N, 103.80 °W | Updated 2 minutes ago

Mostly Cloudy
Mostly Cloudy
75 °F
Feels Like 75 °F
N
15
Wind Variable Wind from South
Gusts 23 mph

Today
High -- | Low -- °F
--% Chance of Precip.
Yesterday
High -- | Low -- °F
Precip. -- in
Pressure 29.92 in
Visibility 10.0 miles
Clouds Mostly Cloudy 16000 ft
Dew Point 59 °F
Humidity 57%
Rainfall 0.00 in
Snow Depth Not available.
6:05 AM 7:59 PM
Waning Crescent, 24% visible
METAR K4MR 290658Z AUTO 19013G20KT 10SM BKN160 24/15 A3012 RMK AO2 SLP131 T02410152 403230168 $
Pressure 29.92 in
Visibility 10.0 miles
Clouds Mostly Cloudy 16000 ft
Dew Point 59 °F
Humidity 57%
Rainfall 0.00 in
Snow Depth Not available.
6:05 AM 7:59 PM
Waning Crescent, 24% visible
METAR K4MR 290658Z AUTO 19013G20KT 10SM BKN160 24/15 A3012 RMK AO2 SLP131 T02410152 403230168 $

10-Day Weather Forecast

Almanac

Astronomy

Jul. 29, 2016 Rise Set
Actual Time
Civil Twilight
Nautical Twilight
Astronomical Twilight
Moon
Length of Visible Light
Length of Day
Tomorrow will be .
, % of the Moon is Illuminated

Today's Extremes

State Highs State Lows

Community

WunderPhotos

Upload Photos

1,928,299 photos uploaded!

WunderBlog® & News

Nearby

Air Quality

  Air Quality AQ Index Pollutant
Not available.

Snow Depth

Station Depth Elevation

Earthquake Activity

City Distance Mag. Time & Date
Minimum magnitude displayed is 2.5.

Coastal Water Temperatures

Place Temperature

Stations

Nearby Weather Stations

Station Location Temp. Windchill Dew Point Humidity Wind Precip. Elev Updated Type
                   

Watches & Warnings

There are currently no watches in effect.